Time;durP1;ratioP1;P1;durP2;ratioP2;P2;SDS_P1;SDS_P2;PMS_P1;PMS_P2;Temp;Humidity;BMP_temperature;BMP_pressure;BME280_temperature;BME280_humidity;BME280_pressure;Samples;Min_cycle;Max_cycle;Signal;HPM_P1;HPM_P2
2024/02/29 11:11:02;;;;;;;6.00;3.20;;;;;;;20.68;29.03;100183.34;4612933;27;21001;-50
2024/02/29 11:13:18;;;;;;;4.47;3.40;;;;;;;20.69;28.98;100170.69;4603032;27;20042;-51
2024/02/29 11:15:29;;;;;;;4.18;3.42;;;;;;;20.71;29.10;100179.72;4583454;27;20151;-53
2024/02/29 11:17:41;;;;;;;4.40;3.50;;;;;;;20.72;28.65;100176.47;4580669;27;20131;-54
2024/02/29 11:19:59;;;;;;;5.32;3.80;;;;;;;20.74;29.52;100173.22;4583340;27;20043;-53
2024/02/29 11:22:13;;;;;;;5.13;3.80;;;;;;;20.74;29.67;100174.06;4582860;27;20055;-55
2024/02/29 11:24:23;;;;;;;4.72;3.50;;;;;;;20.74;29.30;100168.31;4583836;27;20035;-52
2024/02/29 11:26:36;;;;;;;4.13;3.30;;;;;;;20.75;29.32;100163.44;4585312;27;20408;-51
2024/02/29 11:28:48;;;;;;;5.90;4.32;;;;;;;20.75;29.87;100158.53;4569678;27;20028;-52
2024/02/29 11:31:17;;;;;;;5.53;4.43;;;;;;;20.78;30.11;100157.78;4568095;27;20033;-54
2024/02/29 11:33:32;;;;;;;3.00;1.42;;;;;;;21.48;39.55;100152.56;4567349;27;20037;-54
2024/02/29 11:35:42;;;;;;;2.45;1.13;;;;;;;21.70;39.66;100154.56;4567634;27;20575;-55
2024/02/29 11:37:53;;;;;;;2.03;1.35;;;;;;;21.34;37.93;100143.69;4570676;27;20123;-51
2024/02/29 11:40:08;;;;;;;5.57;3.97;;;;;;;21.10;30.68;100138.34;4578507;27;20048;-52
2024/02/29 11:42:22;;;;;;;5.40;4.40;;;;;;;21.03;30.12;100134.47;4583041;27;20944;-55
2024/02/29 11:44:34;;;;;;;5.50;4.07;;;;;;;20.99;30.20;100128.69;4582922;27;20737;-55
2024/02/29 11:46:48;;;;;;;7.22;4.60;;;;;;;20.97;29.94;100118.78;4583858;27;20039;-56
2024/02/29 11:48:59;;;;;;;5.75;4.55;;;;;;;20.96;30.06;100115.13;4583899;27;20071;-54
2024/02/29 11:51:10;;;;;;;5.95;4.28;;;;;;;20.95;30.21;100110.53;4582743;27;20541;-53
2024/02/29 11:53:20;;;;;;;5.45;4.18;;;;;;;20.95;29.96;100107.66;4583315;27;20066;-55
2024/02/29 11:55:30;;;;;;;5.20;4.03;;;;;;;20.96;30.26;100106.50;4583235;27;20039;-55
2024/02/29 11:57:42;;;;;;;5.13;3.92;;;;;;;20.96;30.39;100109.38;4591875;27;20044;-52
2024/02/29 11:59:53;;;;;;;1.88;1.33;;;;;;;21.55;39.94;100103.03;4582375;27;20052;-51
2024/02/29 12:02:07;;;;;;;3.35;2.13;;;;;;;21.33;32.35;100101.84;4582076;27;20085;-54
2024/02/29 12:04:18;;;;;;;5.70;3.97;;;;;;;21.16;30.49;100098.66;4581875;27;20113;-53
2024/02/29 12:06:28;;;;;;;2.90;2.03;;;;;;;21.08;29.12;100091.13;4584440;27;20444;-53
2024/02/29 12:08:39;;;;;;;1.85;1.45;;;;;;;21.05;27.63;100087.00;4581317;27;20446;-53
2024/02/29 12:10:49;;;;;;;1.60;1.30;;;;;;;21.03;26.82;100082.84;4577963;27;20041;-54
2024/02/29 12:13:00;;;;;;;1.33;1.10;;;;;;;21.01;26.34;100080.34;4569976;28;20036;-53
2024/02/29 12:15:12;;;;;;;1.75;1.30;;;;;;;21.02;25.75;100075.44;4569461;27;20455;-55
2024/02/29 12:17:26;;;;;;;1.33;1.20;;;;;;;21.01;25.76;100068.88;4570578;28;20028;-50
2024/02/29 12:19:39;;;;;;;1.63;1.20;;;;;;;21.00;25.66;100067.22;4571259;28;20051;-54
2024/02/29 12:21:50;;;;;;;1.33;1.20;;;;;;;20.99;24.95;100065.59;4571106;27;20895;-53
2024/02/29 12:24:01;;;;;;;1.42;1.10;;;;;;;21.02;24.92;100064.81;4570753;28;20046;-55
2024/02/29 12:26:18;;;;;;;1.52;1.15;;;;;;;21.03;24.79;100062.75;4570196;28;20081;-54
2024/02/29 12:28:30;;;;;;;1.40;1.20;;;;;;;21.04;24.29;100050.06;4570213;27;20766;-53
2024/02/29 12:30:41;;;;;;;2.42;1.42;;;;;;;21.05;24.04;100057.47;4571096;28;20059;-54
2024/02/29 12:32:52;;;;;;;1.73;1.30;;;;;;;21.05;23.97;100046.00;4571153;27;20584;-50
2024/02/29 12:35:06;;;;;;;1.48;1.10;;;;;;;21.06;23.94;100053.41;4571020;27;20028;-52
2024/02/29 12:37:18;;;;;;;1.30;1.10;;;;;;;21.07;24.29;100050.16;4571603;28;20043;-51
2024/02/29 12:39:29;;;;;;;1.38;1.27;;;;;;;21.07;24.10;100044.41;4569033;28;20658;-55
2024/02/29 12:41:42;;;;;;;1.73;1.35;;;;;;;21.07;24.13;100041.53;4570170;28;20040;-53
2024/02/29 12:44:00;;;;;;;1.73;1.40;;;;;;;21.07;23.87;100034.97;4569651;28;20886;-53
2024/02/29 12:46:13;;;;;;;1.85;1.35;;;;;;;21.09;24.16;100041.97;4569144;28;20039;-51
2024/02/29 12:48:24;;;;;;;2.05;1.58;;;;;;;21.09;24.24;100035.41;4569429;28;20036;-51
2024/02/29 12:50:35;;;;;;;1.80;1.45;;;;;;;21.08;24.35;100028.84;4569874;28;20043;-52
2024/02/29 12:52:48;;;;;;;2.25;1.40;;;;;;;21.09;24.31;100024.75;4569732;28;21194;-55
2024/02/29 12:54:58;;;;;;;1.30;1.20;;;;;;;21.09;24.36;100013.25;4570233;28;20040;-54
2024/02/29 12:57:09;;;;;;;2.03;1.40;;;;;;;21.10;24.47;100012.06;4570815;28;20036;-54
2024/02/29 12:59:19;;;;;;;1.75;1.45;;;;;;;21.11;24.13;100012.88;4570621;28;20052;-51
2024/02/29 13:01:37;;;;;;;2.10;1.52;;;;;;;21.12;24.31;100003.88;4570438;27;20035;-50
2024/02/29 13:03:47;;;;;;;1.80;1.40;;;;;;;21.12;24.77;100003.06;4569856;28;20055;-50
2024/02/29 13:05:58;;;;;;;1.92;1.40;;;;;;;21.12;24.15;99989.53;4569328;28;20097;-53
2024/02/29 13:08:09;;;;;;;1.63;1.27;;;;;;;21.15;24.01;99994.53;4569244;28;20047;-55
2024/02/29 13:10:20;;;;;;;1.63;1.35;;;;;;;21.15;23.90;99987.94;4570187;28;20162;-55
2024/02/29 13:12:30;;;;;;;2.17;1.50;;;;;;;21.15;23.82;99988.78;4570610;27;20029;-52
2024/02/29 13:14:42;;;;;;;1.83;1.60;;;;;;;21.14;24.15;99981.38;4570162;28;20070;-55
2024/02/29 13:16:52;;;;;;;1.45;1.25;;;;;;;21.15;23.73;99971.56;4570589;28;20075;-52
2024/02/29 13:19:02;;;;;;;2.03;1.60;;;;;;;21.17;23.99;99980.59;4570860;27;20516;-53
2024/02/29 13:21:13;;;;;;;2.55;1.48;;;;;;;21.18;23.81;99970.81;4570955;27;20028;-53
2024/02/29 13:23:23;;;;;;;1.95;1.40;;;;;;;21.18;23.76;99967.94;4567643;28;20474;-53
2024/02/29 13:25:34;;;;;;;1.70;1.40;;;;;;;21.20;23.89;99967.53;4572143;28;20055;-52
2024/02/29 13:27:45;;;;;;;1.65;1.55;;;;;;;21.20;23.76;99962.59;4570671;28;20032;-53
2024/02/29 13:29:55;;;;;;;1.58;1.23;;;;;;;21.19;24.30;99960.97;4569671;28;20482;-50
2024/02/29 13:32:06;;;;;;;2.13;1.50;;;;;;;21.19;23.96;99954.38;4569977;28;20501;-53
2024/02/29 13:34:16;;;;;;;2.03;1.40;;;;;;;21.20;24.20;99944.59;4569561;27;20040;-54
2024/02/29 13:36:27;;;;;;;1.73;1.30;;;;;;;21.22;24.05;99948.72;4569702;27;20414;-54
2024/02/29 13:38:37;;;;;;;1.60;1.35;;;;;;;21.21;23.76;99943.34;4568667;28;20045;-51
2024/02/29 13:40:47;;;;;;;1.77;1.30;;;;;;;21.21;24.02;99941.31;4568726;28;20021;-52
2024/02/29 13:42:59;;;;;;;1.40;1.25;;;;;;;21.22;24.16;99942.97;4569409;28;20040;-55
2024/02/29 13:45:09;;;;;;;2.20;1.60;;;;;;;21.23;23.95;99930.25;4570469;28;20030;-53
2024/02/29 13:47:20;;;;;;;1.70;1.40;;;;;;;21.24;23.78;99925.34;4568899;27;20981;-53
2024/02/29 13:49:31;;;;;;;1.55;1.30;;;;;;;21.23;24.02;99927.38;4569121;28;20107;-53
2024/02/29 13:51:41;;;;;;;1.75;1.27;;;;;;;21.24;24.08;99908.97;4569400;28;20855;-54
2024/02/29 13:53:52;;;;;;;2.22;1.38;;;;;;;21.26;23.97;99911.44;4568629;28;20036;-54
2024/02/29 13:56:03;;;;;;;1.40;1.25;;;;;;;21.25;23.83;99902.00;4569349;28;20035;-49
2024/02/29 13:58:14;;;;;;;1.95;1.50;;;;;;;21.26;23.93;99902.84;4568914;27;20900;-54
2024/02/29 14:00:24;;;;;;;1.80;1.40;;;;;;;21.25;24.20;99902.00;4569703;28;20040;-54
2024/02/29 14:02:35;;;;;;;1.80;1.40;;;;;;;21.28;24.00;99884.00;4570354;28;20033;-51
2024/02/29 14:04:45;;;;;;;2.00;1.30;;;;;;;21.29;24.15;99885.69;4567951;28;20036;-51
2024/02/29 14:06:56;;;;;;;1.50;1.17;;;;;;;21.29;24.55;99888.53;4570084;27;20121;-50
2024/02/29 14:09:06;;;;;;;1.50;1.30;;;;;;;21.30;24.25;99884.44;4569059;28;20044;-50
2024/02/29 14:11:17;;;;;;;1.80;1.40;;;;;;;21.30;24.24;99875.84;4571583;27;20210;-50
2024/02/29 14:13:27;;;;;;;2.42;1.35;;;;;;;21.31;24.37;99883.22;4569405;28;20037;-50
2024/02/29 14:15:38;;;;;;;1.88;1.40;;;;;;;21.33;24.20;99877.09;4569247;28;20040;-51
2024/02/29 14:17:50;;;;;;;1.88;1.30;;;;;;;21.32;23.97;99869.69;4567361;28;20102;-50
2024/02/29 14:20:01;;;;;;;2.22;1.40;;;;;;;21.32;24.56;99863.97;4568991;28;20081;-52
2024/02/29 14:22:12;;;;;;;1.60;1.40;;;;;;;21.32;24.10;99858.22;4568858;28;20032;-51
2024/02/29 14:24:22;;;;;;;1.55;1.40;;;;;;;21.32;23.83;99861.09;4568893;28;20036;-52
2024/02/29 14:26:33;;;;;;;1.48;1.20;;;;;;;21.32;24.06;99855.34;4568393;28;20041;-50
2024/02/29 14:28:44;;;;;;;2.00;1.40;;;;;;;21.31;24.16;99854.50;4568879;27;20032;-50
2024/02/29 14:30:55;;;;;;;1.92;1.40;;;;;;;21.32;23.92;99850.44;4568688;27;20040;-51
2024/02/29 14:33:06;;;;;;;1.50;1.40;;;;;;;21.32;24.01;99850.44;4569266;28;20036;-51
2024/02/29 14:35:16;;;;;;;2.30;1.65;;;;;;;21.32;24.31;99844.72;4568904;28;20040;-50
2024/02/29 14:37:27;;;;;;;1.90;1.40;;;;;;;21.32;23.84;99849.59;4568176;28;20024;-52
2024/02/29 14:39:37;;;;;;;1.75;1.30;;;;;;;21.32;24.36;99838.13;4570072;27;20418;-51
2024/02/29 14:41:48;;;;;;;1.88;1.30;;;;;;;21.32;24.09;99833.22;4568371;28;20035;-52
2024/02/29 14:44:03;;;;;;;2.35;1.50;;;;;;;21.32;24.38;99827.47;4568973;27;20043;-53
2024/02/29 14:46:13;;;;;;;1.98;1.60;;;;;;;21.33;24.54;99825.41;4568197;28;20039;-54
2024/02/29 14:48:24;;;;;;;2.47;1.75;;;;;;;21.32;24.47;99813.13;4570416;28;20044;-50
2024/02/29 14:50:34;;;;;;;2.33;1.50;;;;;;;21.33;24.63;99819.69;4567658;28;20055;-51
2024/02/29 14:52:45;;;;;;;2.50;1.50;;;;;;;21.33;24.69;99806.16;4566957;27;21002;-51
2024/02/29 14:54:55;;;;;;;2.30;1.70;;;;;;;21.33;24.46;99806.16;4569664;28;20401;-54
2024/02/29 14:57:06;;;;;;;2.50;1.50;;;;;;;21.34;24.84;99809.88;4567844;28;20131;-52
2024/02/29 14:59:17;;;;;;;1.92;1.35;;;;;;;21.34;24.23;99804.97;4568884;28;20040;-51
2024/02/29 15:01:27;;;;;;;2.17;1.38;;;;;;;21.35;24.29;99798.00;4568050;27;20516;-52
2024/02/29 15:03:38;;;;;;;1.85;1.52;;;;;;;21.37;24.44;99801.31;4568488;28;20032;-51
2024/02/29 15:05:49;;;;;;;2.13;1.25;;;;;;;21.35;24.30;99800.88;4568979;28;20036;-50
2024/02/29 15:08:00;;;;;;;2.30;1.60;;;;;;;21.36;24.51;99793.09;4567749;28;20585;-53
2024/02/29 15:10:11;;;;;;;2.03;1.50;;;;;;;21.35;24.66;99786.50;4567803;28;20032;-51
2024/02/29 15:12:22;;;;;;;1.80;1.27;;;;;;;21.35;24.50;99780.78;4568705;27;20021;-50
2024/02/29 15:14:33;;;;;;;2.50;1.60;;;;;;;21.36;24.79;99778.72;4567842;28;20040;-50
2024/02/29 15:16:44;;;;;;;1.80;1.40;;;;;;;21.35;24.19;99775.03;4568992;28;20028;-53
2024/02/29 15:18:54;;;;;;;1.70;1.30;;;;;;;21.37;24.46;99771.75;4567447;28;20032;-51
2024/02/29 15:21:05;;;;;;;2.00;1.42;;;;;;;21.38;23.97;99771.38;4568187;28;20094;-53
2024/02/29 15:23:16;;;;;;;1.98;1.40;;;;;;;21.38;24.57;99771.38;4568442;28;20044;-53
2024/02/29 15:25:28;;;;;;;1.55;1.35;;;;;;;21.38;24.52;99767.66;4569855;28;20074;-53
2024/02/29 15:27:39;;;;;;;1.98;1.25;;;;;;;21.38;24.51;99757.00;4571216;28;20039;-52
2024/02/29 15:29:49;;;;;;;1.92;1.70;;;;;;;21.38;24.82;99759.88;4568789;28;20039;-51
2024/02/29 15:32:00;;;;;;;2.05;1.55;;;;;;;21.39;25.22;99758.66;4568083;28;20043;-51
2024/02/29 15:34:11;;;;;;;1.73;1.40;;;;;;;21.38;24.98;99762.75;4568707;27;20028;-52
2024/02/29 15:36:22;;;;;;;2.00;1.38;;;;;;;21.39;24.88;99758.66;4567525;28;20043;-54
2024/02/29 15:38:32;;;;;;;1.67;1.27;;;;;;;21.41;24.87;99764.00;4568142;27;20043;-51
2024/02/29 15:40:44;;;;;;;1.60;1.20;;;;;;;21.40;24.69;99754.59;4569046;27;20144;-51
2024/02/29 15:42:54;;;;;;;1.55;1.20;;;;;;;21.41;24.02;99759.09;4567756;28;20060;-52
2024/02/29 15:45:05;;;;;;;1.30;1.05;;;;;;;21.41;23.65;99750.50;4566842;28;20067;-51
2024/02/29 15:47:16;;;;;;;1.33;1.20;;;;;;;21.41;23.82;99739.00;4581277;27;20506;-51
2024/02/29 15:49:26;;;;;;;1.60;1.20;;;;;;;21.43;23.68;99741.47;4571619;27;20111;-50
2024/02/29 15:51:37;;;;;;;1.30;1.10;;;;;;;21.43;23.71;99744.34;4570582;28;20466;-51
2024/02/29 15:53:47;;;;;;;1.92;1.15;;;;;;;21.43;23.80;99739.44;4570586;27;20050;-52
2024/02/29 15:55:58;;;;;;;1.88;1.35;;;;;;;21.42;23.26;99737.78;4572066;28;20825;-51
2024/02/29 15:58:09;;;;;;;1.50;1.20;;;;;;;21.44;23.83;99737.38;4570174;27;20098;-54
2024/02/29 16:00:22;;;;;;;1.98;1.33;;;;;;;21.42;23.96;99739.84;4568629;28;20091;-52
2024/02/29 16:02:32;;;;;;;2.08;1.52;;;;;;;21.44;23.79;99737.38;4572212;28;20116;-50
2024/02/29 16:04:43;;;;;;;2.45;1.60;;;;;;;21.43;23.58;99742.31;4571271;28;20037;-52
2024/02/29 16:06:53;;;;;;;1.90;1.48;;;;;;;21.44;23.97;99738.22;4569961;27;20569;-53
2024/02/29 16:09:04;;;;;;;1.83;1.40;;;;;;;21.45;23.86;99733.31;4570183;28;20104;-50
2024/02/29 16:11:14;;;;;;;1.95;1.50;;;;;;;21.45;24.33;99734.13;4571339;27;20035;-50
2024/02/29 16:13:25;;;;;;;2.05;1.67;;;;;;;21.45;24.60;99725.53;4571927;28;20499;-51
2024/02/29 16:15:36;;;;;;;2.20;1.50;;;;;;;21.44;24.59;99721.00;4571000;27;20411;-51
2024/02/29 16:17:46;;;;;;;2.28;1.58;;;;;;;21.46;24.47;99718.56;4570953;28;20031;-51
2024/02/29 16:19:57;;;;;;;2.20;1.55;;;;;;;21.46;24.87;99721.44;4571900;27;20044;-53
2024/02/29 16:22:07;;;;;;;2.45;1.80;;;;;;;21.46;25.53;99715.69;4572300;28;20043;-50
2024/02/29 16:24:17;;;;;;;3.30;2.55;;;;;;;21.48;26.00;99727.59;4570550;28;20028;-52
2024/02/29 16:26:28;;;;;;;4.07;2.90;;;;;;;21.48;26.11;99719.00;4570616;27;20032;-53
2024/02/29 16:28:39;;;;;;;3.72;3.08;;;;;;;21.50;26.28;99719.41;4571139;27;20070;-51
2024/02/29 16:30:49;;;;;;;4.28;3.30;;;;;;;21.51;26.26;99721.06;4570595;28;20104;-51
2024/02/29 16:32:59;;;;;;;3.55;3.00;;;;;;;21.53;26.29;99727.22;4572663;28;20020;-55
2024/02/29 16:35:11;;;;;;;4.40;3.22;;;;;;;21.55;26.42;99709.63;4577444;28;20045;-55
2024/02/29 16:37:22;;;;;;;4.43;3.35;;;;;;;21.55;27.05;99726.88;4574874;28;20036;-54
2024/02/29 16:39:32;;;;;;;3.90;3.13;;;;;;;21.57;27.05;99718.66;4570034;28;20036;-53
2024/02/29 16:41:43;;;;;;;3.97;3.08;;;;;;;21.57;27.20;99716.63;4569254;28;20064;-58
2024/02/29 16:43:53;;;;;;;3.95;3.17;;;;;;;21.59;26.84;99711.31;4570993;28;20502;-53
2024/02/29 16:46:04;;;;;;;3.88;3.15;;;;;;;21.59;27.12;99714.19;4570374;28;20039;-54
2024/02/29 16:48:14;;;;;;;4.68;3.25;;;;;;;21.62;26.68;99718.28;4570185;27;20056;-55
2024/02/29 16:50:25;;;;;;;5.10;3.53;;;;;;;21.62;27.01;99716.25;4568488;27;20032;-58
2024/02/29 16:52:36;;;;;;;5.22;3.50;;;;;;;21.55;26.84;99701.81;4585081;22;20048;-45
2024/02/29 16:54:47;;;;;;;4.80;3.65;;;;;;;21.64;26.48;99713.81;4586151;27;20474;-43
2024/02/29 17:07:58;;;;;;;4.63;3.58;;;;;;;21.72;25.83;99698.28;4385099;23;22299;-52
2024/02/29 17:10:10;;;;;;;5.72;4.00;;;;;;;21.71;26.29;99702.38;4411337;28;20062;-50
2024/02/29 17:14:50;;;;;;;4.97;3.47;;;;;;;21.72;26.28;99697.47;4435656;28;20058;-51
2024/02/29 17:17:03;;;;;;;4.95;3.60;;;;;;;21.71;26.30;99696.66;4446748;28;20401;-52
2024/02/29 17:19:13;;;;;;;5.10;3.65;;;;;;;21.71;26.17;99690.91;4445323;28;20094;-56
2024/02/29 17:21:25;;;;;;;4.63;3.63;;;;;;;21.70;26.24;99689.25;4443913;28;20549;-56
2024/02/29 17:23:35;;;;;;;4.75;3.50;;;;;;;21.71;25.93;99690.06;4445143;28;20508;-53
2024/02/29 17:25:46;;;;;;;5.20;3.80;;;;;;;21.70;25.95;99686.38;4444540;28;20508;-55
2024/02/29 17:27:56;;;;;;;5.07;3.63;;;;;;;21.67;25.86;99686.34;4445256;28;20050;-56
2024/02/29 17:30:08;;;;;;;5.00;3.55;;;;;;;21.67;25.78;99687.19;4445068;28;20192;-56
2024/02/29 17:32:19;;;;;;;5.03;3.53;;;;;;;21.66;25.92;99691.25;4443939;28;20046;-55
2024/02/29 17:34:29;;;;;;;5.28;3.70;;;;;;;21.66;26.08;99684.72;4445605;28;20042;-56
2024/02/29 17:36:41;;;;;;;5.10;3.78;;;;;;;21.66;25.50;99687.59;4443809;28;20050;-52
2024/02/29 17:38:52;;;;;;;4.65;3.58;;;;;;;21.65;25.77;99686.75;4446054;28;20603;-55
2024/02/29 17:41:02;;;;;;;4.80;3.40;;;;;;;21.64;25.64;99687.97;4443963;28;20027;-53
2024/02/29 17:43:12;;;;;;;4.82;3.50;;;;;;;21.64;26.07;99679.38;4444986;28;20057;-53
2024/02/29 17:45:23;;;;;;;5.35;3.40;;;;;;;21.65;25.66;99683.03;4444860;28;20414;-55
2024/02/29 17:47:33;;;;;;;4.93;3.70;;;;;;;21.65;26.09;99685.91;4444128;28;20035;-56
2024/02/29 17:49:44;;;;;;;5.22;3.30;;;;;;;21.64;26.25;99682.25;4444597;28;20043;-56
2024/02/29 17:51:54;;;;;;;5.43;3.88;;;;;;;21.64;25.73;99684.28;4435004;28;20588;-54
2024/02/29 17:54:04;;;;;;;4.97;3.88;;;;;;;21.64;25.56;99679.38;4444112;28;20122;-54
2024/02/29 17:56:18;;;;;;;4.68;3.50;;;;;;;21.63;25.60;99683.44;4443487;28;20122;-55
2024/02/29 17:58:30;;;;;;;5.05;3.60;;;;;;;21.63;26.09;99686.31;4444830;28;20144;-53
2024/02/29 18:00:41;;;;;;;5.60;3.70;;;;;;;21.63;25.74;99683.44;4445784;28;20092;-56
2024/02/29 18:02:51;;;;;;;5.40;3.70;;;;;;;21.61;25.63;99685.88;4444827;28;20072;-56
2024/02/29 18:05:02;;;;;;;4.40;3.55;;;;;;;21.62;25.68;99687.53;4444517;28;20518;-55
2024/02/29 18:07:12;;;;;;;4.63;3.50;;;;;;;21.62;25.64;99681.81;4444497;28;20129;-53
2024/02/29 18:09:23;;;;;;;4.53;3.50;;;;;;;21.61;25.51;99685.88;4443240;28;21553;-56
2024/02/29 18:11:33;;;;;;;5.05;3.42;;;;;;;21.61;25.91;99685.06;4445178;28;20042;-57
2024/02/29 18:13:44;;;;;;;4.95;3.70;;;;;;;21.61;25.80;99690.81;4444824;28;20050;-56
2024/02/29 18:15:54;;;;;;;4.93;3.65;;;;;;;21.61;25.48;99687.94;4436107;28;20043;-54
2024/02/29 18:18:05;;;;;;;5.72;3.90;;;;;;;21.61;25.76;99691.63;4443561;28;20048;-56
2024/02/29 18:20:16;;;;;;;5.57;4.15;;;;;;;21.60;25.57;99684.22;4444837;28;20048;-54
2024/02/29 18:22:27;;;;;;;4.75;3.60;;;;;;;21.58;25.88;99680.94;4443711;28;20035;-56
2024/02/29 18:24:37;;;;;;;4.72;3.70;;;;;;;21.58;26.04;99680.94;4442562;28;20099;-56
2024/02/29 18:26:48;;;;;;;5.53;3.88;;;;;;;21.58;25.74;99678.06;4445481;28;20086;-56
2024/02/29 18:28:58;;;;;;;5.30;4.20;;;;;;;21.58;26.26;99675.19;4444321;28;20043;-53
2024/02/29 18:31:09;;;;;;;4.93;3.78;;;;;;;21.57;25.73;99672.72;4445201;28;20069;-56
2024/02/29 18:33:19;;;;;;;5.28;4.30;;;;;;;21.56;26.13;99666.16;4443458;28;20570;-55
2024/02/29 18:35:30;;;;;;;4.97;4.07;;;;;;;21.55;26.13;99666.56;4443176;28;20486;-55
2024/02/29 18:37:40;;;;;;;5.07;3.95;;;;;;;21.55;26.25;99664.50;4445319;28;20039;-56
2024/02/29 18:39:51;;;;;;;4.97;4.18;;;;;;;21.56;25.98;99659.59;4446050;28;20047;-56
2024/02/29 18:42:01;;;;;;;4.72;3.80;;;;;;;21.55;25.90;99653.00;4444378;28;20838;-55
2024/02/29 18:44:13;;;;;;;5.63;4.40;;;;;;;21.55;25.82;99658.75;4443841;28;20124;-55
2024/02/29 18:46:23;;;;;;;6.05;4.10;;;;;;;21.55;25.82;99653.00;4444220;28;20039;-54
2024/02/29 18:48:35;;;;;;;5.43;4.40;;;;;;;21.54;25.71;99659.97;4443720;28;20035;-55
2024/02/29 18:50:45;;;;;;;5.63;4.40;;;;;;;21.53;25.52;99655.44;4444599;28;20042;-54
2024/02/29 18:52:56;;;;;;;5.95;4.53;;;;;;;21.53;25.47;99661.19;4445411;28;20091;-56
2024/02/29 18:55:10;;;;;;;5.57;4.60;;;;;;;21.54;25.82;99656.28;4444891;28;20063;-55
2024/02/29 18:57:20;;;;;;;6.72;4.43;;;;;;;21.52;25.83;99650.94;4445003;28;20920;-54
2024/02/29 18:59:30;;;;;;;6.00;4.45;;;;;;;21.52;26.00;99652.97;4444207;28;20117;-56
2024/02/29 19:01:45;;;;;;;6.03;4.60;;;;;;;21.51;26.15;99657.91;4428992;28;20063;-55
2024/02/29 19:03:55;;;;;;;5.60;4.35;;;;;;;21.51;25.93;99655.03;4444456;28;20044;-54
2024/02/29 19:06:06;;;;;;;5.90;4.88;;;;;;;21.51;25.66;99651.34;4443304;28;20032;-52
2024/02/29 19:08:16;;;;;;;5.68;4.30;;;;;;;21.50;25.94;99649.69;4442921;28;20118;-56
2024/02/29 19:10:27;;;;;;;5.20;4.38;;;;;;;21.49;26.01;99645.16;4444917;28;20462;-55
2024/02/29 19:12:38;;;;;;;5.65;4.18;;;;;;;21.48;25.79;99638.59;4444471;28;20502;-56
2024/02/29 19:14:48;;;;;;;6.38;4.55;;;;;;;21.48;25.99;99638.59;4445043;28;20038;-56
2024/02/29 19:16:58;;;;;;;5.43;4.38;;;;;;;21.48;26.19;99641.47;4445086;28;20490;-55
2024/02/29 19:19:10;;;;;;;5.22;4.10;;;;;;;21.48;26.24;99641.47;4444463;28;20043;-54
2024/02/29 19:21:20;;;;;;;5.03;4.22;;;;;;;21.48;26.21;99640.63;4444630;28;20772;-55
2024/02/29 19:23:31;;;;;;;6.38;4.28;;;;;;;21.47;25.95;99645.56;4446704;28;20035;-55
2024/02/29 19:25:41;;;;;;;5.95;4.38;;;;;;;21.48;25.92;99641.47;4447506;28;20129;-53
2024/02/29 19:27:52;;;;;;;5.40;4.22;;;;;;;21.48;26.03;99637.78;4447149;28;20020;-54
2024/02/29 19:30:04;;;;;;;5.63;4.15;;;;;;;21.47;26.07;99622.59;4445916;28;20043;-56
2024/02/29 19:32:14;;;;;;;4.68;3.80;;;;;;;21.47;25.86;99628.31;4447219;28;20664;-54
2024/02/29 19:34:25;;;;;;;5.78;4.05;;;;;;;21.46;25.80;99626.69;4447208;28;20027;-55
2024/02/29 19:36:35;;;;;;;6.50;4.30;;;;;;;21.46;25.71;99620.09;4435602;28;20032;-57
2024/02/29 19:38:46;;;;;;;5.20;4.03;;;;;;;21.46;25.76;99615.19;4447488;28;20100;-52
2024/02/29 19:40:56;;;;;;;4.65;3.95;;;;;;;21.46;26.01;99618.06;4446420;28;20139;-52
2024/02/29 19:43:07;;;;;;;5.20;4.13;;;;;;;21.47;25.95;99616.03;4448159;28;20510;-56
2024/02/29 19:45:17;;;;;;;4.97;3.83;;;;;;;21.46;25.63;99615.19;4448206;28;20043;-56
2024/02/29 19:47:27;;;;;;;4.35;3.50;;;;;;;21.45;25.82;99607.81;4446746;28;20051;-53
2024/02/29 19:49:38;;;;;;;5.10;3.80;;;;;;;21.44;25.72;99611.91;4438441;28;20043;-55
2024/02/29 19:51:48;;;;;;;5.00;3.90;;;;;;;21.45;25.29;99607.00;4444435;28;20032;-56
2024/02/29 19:53:58;;;;;;;2.40;1.23;;;;;;;21.77;42.54;99606.03;4446201;28;26849;-56
2024/02/29 19:56:09;;;;;;;2.95;1.20;;;;;;;21.90;42.84;99600.78;4444485;28;20410;-57
2024/02/29 19:58:20;;;;;;;2.50;1.92;;;;;;;21.74;29.81;99603.13;4447121;28;20171;-56
2024/02/29 20:00:32;;;;;;;1.30;1.13;;;;;;;21.80;42.13;99596.63;4446628;28;20040;-56
2024/02/29 20:02:43;;;;;;;2.05;1.20;;;;;;;21.98;42.69;99591.00;4446670;28;20601;-56
2024/02/29 20:04:53;;;;;;;2.50;1.25;;;;;;;22.12;42.71;99596.81;4445902;28;20036;-56
2024/02/29 20:07:04;;;;;;;1.55;1.10;;;;;;;22.09;42.22;99598.47;4446320;28;20973;-56
2024/02/29 20:09:15;;;;;;;5.40;4.43;;;;;;;21.75;27.20;99588.41;4445728;28;20606;-55
2024/02/29 20:11:25;;;;;;;5.15;4.40;;;;;;;21.66;25.40;99578.47;4439339;28;20032;-55
2024/02/29 20:13:36;;;;;;;5.07;3.92;;;;;;;21.60;24.82;99580.84;4443445;28;20054;-52
2024/02/29 20:15:47;;;;;;;5.15;4.30;;;;;;;21.54;24.44;99584.50;4454428;28;20043;-55
2024/02/29 20:17:57;;;;;;;5.78;4.57;;;;;;;21.51;24.40;99577.50;4445949;28;20623;-52
2024/02/29 20:20:09;;;;;;;5.18;4.00;;;;;;;21.48;24.80;99583.22;4460613;28;20066;-54
2024/02/29 20:22:19;;;;;;;4.78;3.95;;;;;;;21.47;24.74;99579.50;4446396;28;20046;-52
2024/02/29 20:24:30;;;;;;;4.30;3.63;;;;;;;21.45;24.32;99573.38;4451529;28;20548;-53
2024/02/29 20:26:40;;;;;;;4.97;4.30;;;;;;;21.43;24.47;99572.94;4445484;28;20450;-56
2024/02/29 20:28:51;;;;;;;4.82;4.00;;;;;;;21.42;24.35;99582.75;4440365;28;20105;-54
2024/02/29 20:31:04;;;;;;;4.50;4.07;;;;;;;21.43;24.63;99575.81;4419678;28;20264;-52
2024/02/29 20:33:15;;;;;;;5.00;4.05;;;;;;;21.42;24.53;99565.53;4454330;28;20905;-54
2024/02/29 20:35:25;;;;;;;3.92;3.42;;;;;;;21.42;24.66;99567.59;4452665;28;20027;-52
2024/02/29 20:37:36;;;;;;;4.90;3.90;;;;;;;21.42;25.18;99562.66;4453938;28;20608;-52
2024/02/29 20:39:46;;;;;;;5.45;4.10;;;;;;;21.40;25.33;99568.00;4454490;28;20058;-56
2024/02/29 20:41:57;;;;;;;5.68;4.80;;;;;;;21.41;25.28;99566.75;4454422;28;20043;-53
2024/02/29 20:44:08;;;;;;;5.10;3.85;;;;;;;21.39;24.88;99566.31;4454324;28;20433;-55
2024/02/29 20:46:18;;;;;;;4.60;3.60;;;;;;;21.39;24.83;99557.72;4454337;28;20402;-56
2024/02/29 20:48:28;;;;;;;4.60;3.65;;;;;;;21.38;25.17;99556.06;4437682;28;20036;-55
2024/02/29 20:50:39;;;;;;;4.72;3.80;;;;;;;21.39;24.71;99554.03;4454346;28;20114;-52
2024/02/29 20:52:49;;;;;;;4.32;3.40;;;;;;;21.38;24.80;99550.34;4453677;28;20047;-53
2024/02/29 20:55:00;;;;;;;5.40;4.10;;;;;;;21.38;24.83;99549.50;4453534;28;20046;-53
2024/02/29 20:57:10;;;;;;;4.60;3.80;;;;;;;21.37;25.37;99542.13;4453448;28;20058;-56
2024/02/29 20:59:21;;;;;;;4.40;3.60;;;;;;;21.37;25.21;99539.25;4453430;28;20494;-55
2024/02/29 21:01:33;;;;;;;5.22;4.05;;;;;;;21.38;24.75;99540.88;4450683;28;22919;-55
2024/02/29 21:03:43;;;;;;;4.90;3.60;;;;;;;21.37;24.68;99540.09;4458997;28;20035;-54
2024/02/29 21:05:54;;;;;;;5.20;3.75;;;;;;;21.36;24.88;99534.75;4432863;28;20455;-52
2024/02/29 21:08:04;;;;;;;4.40;3.70;;;;;;;21.36;25.30;99534.75;4434888;28;20810;-56
2024/02/29 21:10:18;;;;;;;5.30;4.13;;;;;;;21.36;25.40;99534.75;4435176;28;20050;-54
2024/02/29 21:12:28;;;;;;;4.72;3.80;;;;;;;21.35;25.36;99531.03;4441057;28;20081;-52
2024/02/29 21:14:39;;;;;;;5.38;4.10;;;;;;;21.33;25.27;99530.59;4442675;28;20655;-53
2024/02/29 21:16:49;;;;;;;5.55;4.45;;;;;;;21.35;25.06;99528.16;4443424;28;20028;-56
2024/02/29 21:19:00;;;;;;;5.10;4.13;;;;;;;21.35;25.12;99528.16;4430561;28;20118;-56
2024/02/29 21:21:10;;;;;;;5.30;4.00;;;;;;;21.35;25.30;99525.31;4435998;28;20032;-52
2024/02/29 21:23:22;;;;;;;5.32;4.00;;;;;;;21.33;24.90;99530.59;4417737;28;20262;-52
2024/02/29 21:25:32;;;;;;;5.53;4.30;;;;;;;21.32;25.21;99526.09;4444374;28;20175;-56
2024/02/29 21:27:42;;;;;;;5.63;4.20;;;;;;;21.32;25.15;99528.97;4443839;28;20144;-52
2024/02/29 21:29:53;;;;;;;4.97;3.90;;;;;;;21.33;25.70;99516.25;4429956;28;20032;-52
2024/02/29 21:32:04;;;;;;;5.82;4.47;;;;;;;21.34;25.71;99519.97;4444380;28;20048;-54
2024/02/29 21:34:14;;;;;;;5.63;4.65;;;;;;;21.33;25.67;99522.00;4442792;28;20091;-52
2024/02/29 21:36:24;;;;;;;5.60;4.10;;;;;;;21.34;25.69;99517.09;4444998;28;20044;-56
2024/02/29 21:38:35;;;;;;;5.82;4.43;;;;;;;21.31;26.30;99515.81;4443611;28;20039;-56